createdAt,value
2022-08-14T00:00:23.973Z,64.40
2022-08-14T00:02:56.480Z,66.40
2022-08-14T00:05:30.156Z,65.20
2022-08-14T00:08:03.691Z,64.80
2022-08-14T00:10:51.220Z,65.50
2022-08-14T00:13:29.444Z,66.10
2022-08-14T00:16:03.609Z,64.80
2022-08-14T00:19:06.401Z,64.80
2022-08-14T00:21:31.168Z,64.90
2022-08-14T00:24:04.809Z,64.90
2022-08-14T00:26:36.561Z,65.30
2022-08-14T00:29:09.234Z,64.80
2022-08-14T00:31:45.729Z,64.60
2022-08-14T00:34:36.275Z,65.80
2022-08-14T00:37:09.981Z,65.60
2022-08-14T00:39:42.629Z,64.90
2022-08-14T00:42:52.698Z,66.00
2022-08-14T00:45:10.161Z,64.70
2022-08-14T00:47:46.770Z,66.80
2022-08-14T00:50:22.040Z,66.00
2022-08-14T00:52:56.251Z,65.10
2022-08-14T00:55:29.961Z,65.10
2022-08-14T00:58:32.554Z,66.70
2022-08-14T01:01:10.130Z,65.70
2022-08-14T01:03:43.416Z,67.10
2022-08-14T01:06:18.789Z,65.70
2022-08-14T01:08:58.147Z,66.10
2022-08-14T01:11:35.358Z,67.50
2022-08-14T01:14:25.880Z,67.50
2022-08-14T01:17:00.594Z,66.50
2022-08-14T01:19:50.882Z,65.80
2022-08-14T01:22:26.608Z,67.40
2022-08-14T01:24:59.073Z,67.70
2022-08-14T01:27:36.586Z,67.30
2022-08-14T01:30:27.783Z,67.40
2022-08-14T01:33:00.078Z,67.80
2022-08-14T01:36:03.477Z,67.20
2022-08-14T01:38:26.035Z,67.70
2022-08-14T01:40:58.153Z,68.10
2022-08-14T01:43:38.627Z,68.00
2022-08-14T01:46:11.638Z,68.20
2022-08-14T01:48:58.343Z,68.20
2022-08-14T01:51:32.055Z,67.40
2022-08-14T01:54:10.815Z,68.10
2022-08-14T01:56:46.531Z,67.90
2022-08-14T01:59:26.930Z,67.80
2022-08-14T02:02:19.049Z,68.30
2022-08-14T02:04:56.784Z,67.10
2022-08-14T02:07:44.957Z,67.50
2022-08-14T02:10:27.276Z,68.40
2022-08-14T02:12:59.424Z,67.70
2022-08-14T02:15:32.369Z,67.60
2022-08-14T02:18:04.319Z,68.50
2022-08-14T02:20:36.904Z,67.60
2022-08-14T02:23:09.306Z,67.20
2022-08-14T02:25:41.839Z,67.20
2022-08-14T02:28:25.153Z,67.50
2022-08-14T02:31:09.255Z,68.30
2022-08-14T02:33:42.088Z,67.70
2022-08-14T02:37:06.579Z,68.40
2022-08-14T02:39:11.170Z,69.20
2022-08-14T02:41:58.158Z,67.20
2022-08-14T02:44:31.123Z,69.50
2022-08-14T02:47:02.923Z,68.50
2022-08-14T02:49:39.885Z,67.80
2022-08-14T02:52:26.968Z,67.40
2022-08-14T02:55:07.609Z,67.40
2022-08-14T02:57:41.135Z,67.70
2022-08-14T03:00:18.664Z,67.60
2022-08-14T03:02:58.514Z,67.50
2022-08-14T03:05:36.187Z,69.10
2022-08-14T03:08:15.363Z,67.60
2022-08-14T03:10:50.125Z,67.50
2022-08-14T03:13:22.953Z,67.30
2022-08-14T03:15:58.083Z,67.50
2022-08-14T03:18:32.806Z,68.70
2022-08-14T03:21:07.736Z,67.10
2022-08-14T03:23:42.061Z,67.30
2022-08-14T03:26:18.536Z,69.10
2022-08-14T03:29:03.980Z,67.90
2022-08-14T03:31:40.399Z,67.60
2022-08-14T03:34:24.970Z,68.20
2022-08-14T03:37:50.798Z,68.10
2022-08-14T03:40:06.690Z,69.10
2022-08-14T03:42:44.060Z,68.40
2022-08-14T03:45:34.748Z,68.60
2022-08-14T03:48:30.167Z,67.80
2022-08-14T03:51:04.596Z,68.30
2022-08-14T03:53:43.264Z,67.20
2022-08-14T03:56:17.931Z,68.50
2022-08-14T03:58:56.007Z,68.40
2022-08-14T04:01:39.048Z,68.40
2022-08-14T04:04:14.167Z,68.00
2022-08-14T04:06:51.740Z,69.40
2022-08-14T04:09:26.824Z,68.80
2022-08-14T04:12:00.325Z,69.00
2022-08-14T04:14:37.338Z,68.70
2022-08-14T04:17:11.650Z,69.80
2022-08-14T04:19:45.784Z,70.30
2022-08-14T04:22:22.587Z,70.10
2022-08-14T04:24:54.772Z,70.50
2022-08-14T04:27:28.279Z,71.30
2022-08-14T04:30:05.478Z,71.70
2022-08-14T04:32:58.294Z,71.70
2022-08-14T04:35:55.363Z,72.50
2022-08-14T04:38:42.288Z,72.00
2022-08-14T04:41:33.456Z,72.30
2022-08-14T04:44:05.944Z,70.40
2022-08-14T04:46:55.299Z,71.30
2022-08-14T04:49:30.114Z,70.30
2022-08-14T04:52:15.357Z,69.80
2022-08-14T04:54:55.463Z,70.50
2022-08-14T04:57:28.040Z,69.80
2022-08-14T05:00:01.232Z,68.80
2022-08-14T05:02:34.944Z,71.30
2022-08-14T05:05:08.815Z,70.40
2022-08-14T05:07:54.211Z,71.40
2022-08-14T05:10:32.330Z,71.10
2022-08-14T05:13:12.841Z,71.30
2022-08-14T05:15:47.980Z,71.70
2022-08-14T05:19:16.993Z,71.40
2022-08-14T05:21:58.350Z,71.50
2022-08-14T05:24:17.652Z,71.80
2022-08-14T05:26:50.637Z,71.50
2022-08-14T05:29:24.313Z,71.70
2022-08-14T05:31:57.543Z,72.20
2022-08-14T05:34:31.756Z,70.80
2022-08-14T05:37:06.816Z,70.80
2022-08-14T05:39:41.202Z,69.60
2022-08-14T05:42:22.228Z,70.20
2022-08-14T05:44:59.754Z,70.00
2022-08-14T05:47:38.874Z,70.00
2022-08-14T05:50:19.256Z,70.50
2022-08-14T05:52:52.534Z,70.30
2022-08-14T05:55:25.575Z,70.70
2022-08-14T05:58:00.322Z,70.50
2022-08-14T06:00:43.465Z,71.50
2022-08-14T06:03:17.514Z,71.30
2022-08-14T06:05:54.465Z,70.80
2022-08-14T06:08:36.600Z,71.10
2022-08-14T06:11:14.863Z,70.70
2022-08-14T06:13:52.471Z,70.30
2022-08-14T06:16:25.051Z,70.10
2022-08-14T06:18:59.570Z,70.70
2022-08-14T06:21:32.724Z,70.50
2022-08-14T06:24:05.346Z,70.70
2022-08-14T06:26:43.200Z,70.80
2022-08-14T06:29:25.489Z,70.80
2022-08-14T06:32:38.754Z,71.00
2022-08-14T06:35:11.182Z,71.00
2022-08-14T06:37:58.292Z,71.10
2022-08-14T06:40:42.854Z,70.50
2022-08-14T06:43:16.954Z,70.60
2022-08-14T06:45:54.461Z,70.30
2022-08-14T06:48:29.420Z,70.30
2022-08-14T06:51:04.494Z,70.20
2022-08-14T06:53:38.161Z,70.50
2022-08-14T06:56:11.639Z,69.90
2022-08-14T06:58:44.251Z,70.60
2022-08-14T07:01:35.528Z,71.00
2022-08-14T07:04:25.778Z,70.20
2022-08-14T07:06:59.199Z,70.10
2022-08-14T07:09:40.574Z,70.00
2022-08-14T07:12:54.681Z,69.30
2022-08-14T07:15:16.315Z,69.40
2022-08-14T07:17:51.999Z,70.00
2022-08-14T07:20:31.179Z,70.20
2022-08-14T07:23:08.878Z,69.30
2022-08-14T07:25:45.115Z,69.50
2022-08-14T07:28:24.169Z,69.30
2022-08-14T07:31:05.062Z,68.60
2022-08-14T07:33:45.677Z,68.20
2022-08-14T07:36:27.930Z,67.60
2022-08-14T07:39:13.316Z,66.50
2022-08-14T07:41:46.016Z,64.10
2022-08-14T07:44:32.957Z,60.80
2022-08-14T07:47:11.361Z,58.80
2022-08-14T07:49:55.387Z,55.90
2022-08-14T07:52:30.652Z,54.10
2022-08-14T07:55:05.953Z,53.20
2022-08-14T07:57:44.776Z,53.50
2022-08-14T08:00:31.648Z,53.70
2022-08-14T08:03:11.486Z,55.10
2022-08-14T08:05:45.464Z,55.50
2022-08-14T08:08:26.927Z,55.40
2022-08-14T08:11:03.730Z,55.10
2022-08-14T08:13:49.115Z,54.80
2022-08-14T08:16:29.047Z,54.00
2022-08-14T08:19:12.433Z,53.40
2022-08-14T08:21:47.697Z,53.50
2022-08-14T08:24:20.960Z,53.40
2022-08-14T08:26:53.687Z,52.40
2022-08-14T08:29:29.003Z,52.50
2022-08-14T08:32:06.058Z,52.70
2022-08-14T08:34:48.500Z,52.00
2022-08-14T08:37:22.162Z,52.00
2022-08-14T08:40:02.376Z,51.80
2022-08-14T08:42:41.202Z,50.60
2022-08-14T08:45:17.329Z,50.80
2022-08-14T08:47:50.581Z,51.70
2022-08-14T08:53:08.083Z,49.80
2022-08-14T08:55:44.512Z,50.70
2022-08-14T08:58:24.893Z,50.30
2022-08-14T09:00:59.830Z,49.10
2022-08-14T09:03:32.716Z,49.90
2022-08-14T09:06:09.529Z,50.10
2022-08-14T09:08:58.741Z,50.00
2022-08-14T09:11:31.342Z,48.80
2022-08-14T09:14:05.620Z,48.40
2022-08-14T09:16:37.887Z,47.20
2022-08-14T09:19:11.478Z,48.30
2022-08-14T09:21:43.427Z,49.30
2022-08-14T09:24:29.414Z,49.90
2022-08-14T09:27:07.464Z,50.30
2022-08-14T09:29:40.268Z,50.00
2022-08-14T09:32:58.150Z,49.70
2022-08-14T09:35:47.956Z,49.20
2022-08-14T09:39:04.219Z,48.00
2022-08-14T09:42:21.140Z,48.50
2022-08-14T09:45:18.214Z,47.30
2022-08-14T09:47:52.799Z,48.20
2022-08-14T09:50:30.148Z,48.20
2022-08-14T09:53:17.746Z,48.10
2022-08-14T09:55:59.044Z,47.10
2022-08-14T09:58:43.303Z,46.20
2022-08-14T10:01:17.368Z,46.20
2022-08-14T10:03:56.748Z,45.70
2022-08-14T10:06:31.988Z,46.50
2022-08-14T10:09:06.418Z,46.20
2022-08-14T10:11:59.739Z,47.00
2022-08-14T10:14:36.567Z,46.20
2022-08-14T10:17:09.649Z,45.50
2022-08-14T10:19:49.925Z,46.50
2022-08-14T10:23:15.507Z,46.70
2022-08-14T10:25:23.056Z,46.50
2022-08-14T10:27:58.567Z,46.80
2022-08-14T10:30:38.840Z,47.40
2022-08-14T10:33:10.669Z,47.30
2022-08-14T10:35:47.862Z,48.30
2022-08-14T10:38:34.278Z,48.40
2022-08-14T10:41:15.256Z,48.40
2022-08-14T10:44:21.096Z,48.20
2022-08-14T10:47:40.744Z,48.00
2022-08-14T10:50:01.714Z,48.30
2022-08-14T10:52:35.604Z,48.60
2022-08-14T10:55:14.773Z,48.80
2022-08-14T10:57:55.048Z,48.20
2022-08-14T11:00:30.354Z,48.20
2022-08-14T11:03:17.307Z,47.90
2022-08-14T11:06:01.122Z,47.80
2022-08-14T11:08:34.457Z,47.10
2022-08-14T11:11:07.115Z,47.20
2022-08-14T11:13:46.823Z,46.60
2022-08-14T11:16:19.654Z,46.50
2022-08-14T11:18:55.796Z,46.60
2022-08-14T11:21:34.291Z,47.70
2022-08-14T11:24:53.843Z,47.70
2022-08-14T11:27:07.346Z,47.60
2022-08-14T11:29:42.422Z,48.40
2022-08-14T11:32:15.036Z,49.40
2022-08-14T11:34:48.287Z,50.20
2022-08-14T11:37:31.579Z,51.30
2022-08-14T11:40:24.264Z,52.40
2022-08-14T11:43:04.221Z,53.10
2022-08-14T11:45:39.252Z,54.50
2022-08-14T11:49:02.736Z,54.90
2022-08-14T11:51:18.234Z,55.80
2022-08-14T11:53:57.196Z,58.50
2022-08-14T11:56:37.829Z,58.90
2022-08-14T11:59:26.449Z,59.20
2022-08-14T12:03:00.906Z,59.90
2022-08-14T12:05:09.273Z,59.60
2022-08-14T12:07:51.813Z,59.30
2022-08-14T12:10:26.056Z,59.80
2022-08-14T12:12:59.857Z,61.50
2022-08-14T12:15:35.943Z,63.40
2022-08-14T12:18:11.366Z,63.50
2022-08-14T12:20:59.418Z,63.70
2022-08-14T12:23:32.417Z,64.00
2022-08-14T12:26:12.145Z,63.90
2022-08-14T12:29:16.818Z,63.60
2022-08-14T12:32:04.230Z,63.50
2022-08-14T12:34:37.400Z,63.90
2022-08-14T12:37:10.060Z,64.40
2022-08-14T12:39:44.343Z,64.60
2022-08-14T12:42:34.275Z,65.00
2022-08-14T12:45:08.272Z,64.90
2022-08-14T12:47:42.818Z,65.10
2022-08-14T12:50:15.021Z,65.20
2022-08-14T12:53:01.850Z,65.60
2022-08-14T12:56:18.731Z,64.60
2022-08-14T12:58:51.908Z,65.60
2022-08-14T13:01:27.543Z,65.00
2022-08-14T13:04:12.934Z,64.80
2022-08-14T13:06:50.770Z,65.00
2022-08-14T13:09:36.438Z,64.90
2022-08-14T13:12:31.847Z,64.70
2022-08-14T13:15:08.938Z,63.20
2022-08-14T13:17:47.007Z,61.90
2022-08-14T13:20:26.591Z,60.00
2022-08-14T13:22:59.312Z,60.00
2022-08-14T13:25:34.650Z,58.10
2022-08-14T13:28:11.237Z,57.40
2022-08-14T13:30:45.799Z,56.90
2022-08-14T13:33:21.168Z,56.60
2022-08-14T13:35:54.817Z,56.40
2022-08-14T13:38:27.977Z,56.20
2022-08-14T13:41:00.759Z,55.70
2022-08-14T13:43:36.800Z,56.10
2022-08-14T13:46:21.413Z,56.20
2022-08-14T13:49:00.102Z,56.80
2022-08-14T13:51:38.644Z,57.00
2022-08-14T13:54:14.172Z,57.10
2022-08-14T13:56:49.712Z,57.00
2022-08-14T13:59:37.756Z,57.20
2022-08-14T14:02:11.378Z,57.60
2022-08-14T14:05:05.209Z,57.90
2022-08-14T14:07:39.185Z,57.90
2022-08-14T14:10:17.403Z,57.90
2022-08-14T14:12:56.469Z,57.40
2022-08-14T14:15:33.898Z,57.40
2022-08-14T14:18:34.051Z,57.00
2022-08-14T14:21:08.025Z,56.90
2022-08-14T14:23:43.845Z,57.00
2022-08-14T14:26:23.483Z,57.20
2022-08-14T14:28:57.663Z,57.00
2022-08-14T14:31:32.441Z,56.90
2022-08-14T14:34:07.766Z,56.30
2022-08-14T14:37:04.904Z,56.60
2022-08-14T14:40:53.461Z,56.40
2022-08-14T14:42:35.404Z,55.80
2022-08-14T14:45:15.572Z,55.80
2022-08-14T14:47:59.173Z,56.10
2022-08-14T14:50:32.614Z,56.50
2022-08-14T14:53:12.668Z,56.80
2022-08-14T14:56:48.257Z,56.40
2022-08-14T14:58:42.948Z,56.30
2022-08-14T15:01:26.922Z,56.70
2022-08-14T15:04:04.193Z,56.60
2022-08-14T15:06:47.545Z,55.90
2022-08-14T15:09:20.919Z,55.80
2022-08-14T15:11:57.571Z,55.70
2022-08-14T15:14:55.385Z,55.00
2022-08-14T15:17:23.515Z,54.90
2022-08-14T15:19:57.309Z,54.80
2022-08-14T15:22:30.526Z,55.10
2022-08-14T15:25:02.763Z,55.30
2022-08-14T15:27:34.814Z,55.90
2022-08-14T15:30:09.820Z,56.10
2022-08-14T15:32:43.236Z,55.90
2022-08-14T15:35:15.079Z,56.10
2022-08-14T15:37:55.626Z,56.80
2022-08-14T15:40:28.023Z,57.80
2022-08-14T15:43:01.220Z,58.30
2022-08-14T15:45:34.073Z,58.40
2022-08-14T15:48:09.037Z,58.60
2022-08-14T15:50:54.746Z,59.00
2022-08-14T15:53:26.796Z,59.30
2022-08-14T15:56:06.464Z,59.80
2022-08-14T15:58:41.683Z,60.60
2022-08-14T16:01:43.327Z,61.80
2022-08-14T16:04:17.204Z,62.70
2022-08-14T16:06:55.378Z,63.20
2022-08-14T16:09:27.532Z,63.70
2022-08-14T16:12:00.169Z,64.50
2022-08-14T16:14:34.174Z,64.60
2022-08-14T16:17:09.681Z,64.70
2022-08-14T16:19:46.164Z,64.90
2022-08-14T16:22:58.757Z,64.50
2022-08-14T16:25:12.218Z,64.00
2022-08-14T16:27:50.999Z,63.90
2022-08-14T16:30:27.981Z,63.90
2022-08-14T16:33:02.130Z,63.90
2022-08-14T16:35:43.139Z,63.30
2022-08-14T16:38:48.308Z,62.50
2022-08-14T16:41:26.656Z,62.30
2022-08-14T16:44:05.904Z,62.50
2022-08-14T16:46:48.544Z,62.50
2022-08-14T16:49:26.129Z,62.50
2022-08-14T16:52:25.990Z,63.00
2022-08-14T16:55:13.942Z,62.80
2022-08-14T16:57:52.231Z,62.80
2022-08-14T17:00:43.708Z,62.80
2022-08-14T17:03:17.855Z,62.90
2022-08-14T17:05:50.960Z,63.00
2022-08-14T17:08:46.061Z,63.40
2022-08-14T17:11:16.814Z,64.20
2022-08-14T17:14:00.405Z,65.40
2022-08-14T17:16:37.266Z,66.10
2022-08-14T17:19:14.207Z,66.90
2022-08-14T17:21:51.976Z,66.90
2022-08-14T17:27:23.102Z,68.50
2022-08-14T17:29:57.616Z,69.40
2022-08-14T17:32:44.582Z,70.50
2022-08-14T17:38:39.286Z,71.00
2022-08-14T17:41:27.178Z,71.30
2022-08-14T17:44:10.724Z,71.60
2022-08-14T17:46:57.037Z,71.60
2022-08-14T17:49:32.315Z,71.60
2022-08-14T17:52:17.055Z,71.70
2022-08-14T17:54:52.595Z,71.60
2022-08-14T17:57:35.526Z,71.70
2022-08-14T18:00:18.333Z,71.70
2022-08-14T18:02:52.048Z,71.40
2022-08-14T18:06:07.534Z,71.60
2022-08-14T18:08:33.687Z,71.60
2022-08-14T18:11:16.785Z,71.40
2022-08-14T18:13:52.718Z,71.50
2022-08-14T18:16:28.002Z,71.70
2022-08-14T18:19:03.573Z,71.60
2022-08-14T18:21:56.198Z,71.70
2022-08-14T18:24:31.920Z,71.80
2022-08-14T18:27:13.027Z,71.90
2022-08-14T18:29:58.028Z,72.30
2022-08-14T18:32:33.317Z,72.80
2022-08-14T18:35:13.197Z,72.80
2022-08-14T18:37:56.128Z,72.80
2022-08-14T18:40:34.465Z,72.60
2022-08-14T18:43:07.125Z,72.70
2022-08-14T18:46:01.122Z,72.80
2022-08-14T18:48:50.410Z,72.70
2022-08-14T18:51:45.277Z,72.40
2022-08-14T18:54:32.773Z,72.10
2022-08-14T18:57:09.658Z,71.70
2022-08-14T18:59:43.492Z,71.30
2022-08-14T19:02:30.740Z,71.60
2022-08-14T19:05:04.487Z,71.80
2022-08-14T19:07:36.314Z,72.10
2022-08-14T19:10:16.664Z,72.20
2022-08-14T19:12:57.058Z,72.10
2022-08-14T19:15:36.849Z,72.20
2022-08-14T19:18:29.767Z,72.10
2022-08-14T19:21:13.258Z,71.80
2022-08-14T19:24:04.223Z,71.90
2022-08-14T19:27:16.461Z,72.10
2022-08-14T19:30:11.028Z,72.40
2022-08-14T19:32:56.105Z,72.80
2022-08-14T19:35:55.037Z,72.90
2022-08-14T19:38:58.066Z,73.10
2022-08-14T19:41:34.386Z,73.40
2022-08-14T19:44:15.930Z,73.50
2022-08-14T19:47:01.118Z,73.70
2022-08-14T19:50:08.728Z,73.80
2022-08-14T19:52:40.075Z,73.80
2022-08-14T19:55:17.287Z,74.10
2022-08-14T19:57:58.649Z,74.20
2022-08-14T20:00:31.104Z,74.30
2022-08-14T20:03:10.814Z,74.60
2022-08-14T20:05:45.717Z,74.60
2022-08-14T20:11:01.367Z,74.90
2022-08-14T20:11:43.040Z,75.90
2022-08-14T20:14:28.243Z,75.50
2022-08-14T20:17:06.752Z,75.60
2022-08-14T20:19:41.758Z,75.60
2022-08-14T20:22:35.306Z,75.70
2022-08-14T20:25:16.852Z,75.50
2022-08-14T20:27:59.489Z,75.50
2022-08-14T20:30:34.529Z,75.70
2022-08-14T20:33:10.885Z,75.80
2022-08-14T20:35:49.529Z,75.90
2022-08-14T20:38:33.302Z,75.80
2022-08-14T20:41:12.342Z,75.80
2022-08-14T20:44:06.511Z,76.10
2022-08-14T20:46:42.139Z,75.90
2022-08-14T20:49:19.163Z,75.70
2022-08-14T20:52:04.813Z,75.60
2022-08-14T20:54:50.693Z,75.70
2022-08-14T20:57:24.260Z,75.70
2022-08-14T20:59:57.194Z,75.90
2022-08-14T21:02:34.418Z,75.60
2022-08-14T21:05:22.466Z,75.80
2022-08-14T21:08:08.483Z,75.50
2022-08-14T21:10:44.734Z,75.60
2022-08-14T21:14:09.180Z,75.60
2022-08-14T21:16:33.239Z,75.60
2022-08-14T21:19:04.177Z,76.10
2022-08-14T21:21:41.608Z,76.30
2022-08-14T21:24:38.526Z,76.20
2022-08-14T21:27:20.054Z,76.00
2022-08-14T21:29:56.492Z,76.00
2022-08-14T21:32:46.792Z,76.00
2022-08-14T21:35:22.679Z,76.00
2022-08-14T21:37:57.022Z,75.90
2022-08-14T21:40:42.544Z,75.90
2022-08-14T21:43:21.581Z,75.70
2022-08-14T21:45:57.572Z,75.90
2022-08-14T21:48:34.061Z,75.80
2022-08-14T21:51:53.756Z,75.50
2022-08-14T21:54:04.114Z,76.40
2022-08-14T21:56:40.947Z,78.10
2022-08-14T21:59:32.745Z,81.00
2022-08-14T22:02:07.201Z,83.30
2022-08-14T22:04:41.408Z,84.60
2022-08-14T22:07:16.731Z,85.80
2022-08-14T22:09:54.992Z,86.80
2022-08-14T22:12:58.687Z,86.90
2022-08-14T22:15:20.735Z,84.80
2022-08-14T22:17:55.220Z,84.50
2022-08-14T22:20:29.162Z,84.60
2022-08-14T22:23:06.587Z,84.70
2022-08-14T22:25:41.868Z,86.30
2022-08-14T22:28:20.711Z,87.70
2022-08-14T22:30:55.039Z,88.50
2022-08-14T22:33:30.858Z,88.60
2022-08-14T22:36:24.885Z,89.00
2022-08-14T22:38:57.667Z,89.30
2022-08-14T22:41:42.271Z,90.20
2022-08-14T22:44:29.024Z,90.70
2022-08-14T22:47:01.366Z,91.10
2022-08-14T22:50:30.274Z,91.10
2022-08-14T22:52:33.290Z,91.10
2022-08-14T22:55:06.501Z,91.40
2022-08-14T22:57:43.317Z,92.30
2022-08-14T23:00:25.078Z,93.50
2022-08-14T23:03:02.049Z,95.10
2022-08-14T23:05:40.255Z,97.00
2022-08-14T23:08:57.017Z,98.10
2022-08-14T23:11:17.163Z,99.60
2022-08-14T23:13:49.844Z,99.90
2022-08-14T23:16:24.010Z,99.90
2022-08-14T23:18:57.259Z,99.90
2022-08-14T23:21:29.948Z,99.90
2022-08-14T23:24:03.080Z,99.90
2022-08-14T23:26:48.270Z,99.90
2022-08-14T23:29:22.796Z,99.90
2022-08-14T23:31:57.086Z,99.90
2022-08-14T23:34:32.165Z,99.90
2022-08-14T23:37:04.719Z,99.90
2022-08-14T23:39:39.222Z,99.90
2022-08-14T23:42:12.039Z,99.90
2022-08-14T23:44:50.186Z,99.90
2022-08-14T23:47:26.994Z,99.90
2022-08-14T23:50:00.933Z,99.90
2022-08-14T23:53:06.244Z,99.90
2022-08-14T23:55:33.749Z,99.90
2022-08-14T23:58:07.887Z,99.90
